PWSweather.com
Personal Weather Stations
Station Observations
TARRYHILL
Tarrytown, NY 10591

Tarrytown, NY 10591

Lat: 41.05185, Lon: -73.85296

Elevation: 341

Station Type: Davis Vantage Vue

www.tarrytownnyweather.com

High Low Average
Temperature 85.2°F29.6°F 72.3°F22.4°F 77.6°F25.3°F
Dew Point 71.3°F21.8°F 63.0°F17.2°F 68.1°F20.1°F
Winds 5.5 mph WSW8.9 mph WSW Calm Calm 1.7 mph 2.7 mph
Wind Gusts 11.0 mph17.7 mph -- 3.4 mph5.5 mph
Humidity 85% 62% 73%
Pressure 30.04 in1017.30 in 29.98 in1015.20 in -
Precipitation 0.00 in0.00 in - -
Hour Temp Dew Point Humidity Winds Wind Gusts Pressure Precip Precip Rate Daily Precip Total
12:00 AM 77.0°F25.0°C 64.8°F18.2°C 66% 1.0 mph SSE1.6 kmh SSE 3.0 mph4.8 kmh 30.00 in1015.9 mb - 0.00 in0.0 mm 0.00 in0.0 mm
12:10 AM 76.9°F24.9°C 64.6°F18.1°C 66% 2.6 mph SSW4.2 kmh SSW 4.0 mph6.4 kmh 30.00 in1015.9 mb - 0.00 in0.0 mm 0.00 in0.0 mm
12:20 AM 76.6°F24.8°C 64.0°F17.8°C 65% 2.8 mph SW4.5 kmh SW 6.0 mph9.7 kmh 29.99 in1015.6 mb - 0.00 in0.0 mm 0.00 in0.0 mm
12:30 AM 76.5°F24.7°C 63.9°F17.7°C 65% 0.2 mph SW0.3 kmh SW 2.0 mph3.2 kmh 30.00 in1015.9 mb - 0.00 in0.0 mm 0.00 in0.0 mm
12:40 AM 76.5°F24.7°C 63.8°F17.7°C 65% 1.1 mph SW1.8 kmh SW 4.0 mph6.4 kmh 29.99 in1015.6 mb - 0.00 in0.0 mm 0.00 in0.0 mm
12:50 AM 76.4°F24.7°C 63.3°F17.4°C 64% 0.7 mph S1.1 kmh S 1.0 mph1.6 kmh 29.99 in1015.6 mb - 0.00 in0.0 mm 0.00 in0.0 mm
01:00 AM 76.2°F24.6°C 63.6°F17.6°C 65% 0.6 mph S1.0 kmh S 3.0 mph4.8 kmh 29.99 in1015.6 mb - 0.00 in0.0 mm 0.00 in0.0 mm
01:10 AM 76.1°F24.5°C 63.5°F17.5°C 65% 0.9 mph SW1.4 kmh SW 1.0 mph1.6 kmh 30.00 in1015.9 mb - 0.00 in0.0 mm 0.00 in0.0 mm
01:20 AM 76.0°F24.4°C 63.0°F17.2°C 64% 0.7 mph SW1.1 kmh SW -- 29.99 in1015.6 mb - 0.00 in0.0 mm 0.00 in0.0 mm
01:30 AM 75.9°F24.4°C 63.3°F17.4°C 65% 1.8 mph SSW2.9 kmh SSW 5.0 mph8.0 kmh 29.99 in1015.6 mb - 0.00 in0.0 mm 0.00 in0.0 mm
01:40 AM 75.8°F24.3°C 63.6°F17.6°C 66% 1.4 mph SSW2.3 kmh SSW 3.0 mph4.8 kmh 29.99 in1015.6 mb - 0.00 in0.0 mm 0.00 in0.0 mm
01:50 AM 75.8°F24.3°C 63.2°F17.3°C 65% 2.7 mph SW4.3 kmh SW 4.0 mph6.4 kmh 29.98 in1015.2 mb - 0.00 in0.0 mm 0.00 in0.0 mm
02:00 AM 75.7°F24.3°C 63.5°F17.5°C 66% 2.3 mph SSW3.7 kmh SSW 6.0 mph9.7 kmh 29.98 in1015.2 mb - 0.00 in0.0 mm 0.00 in0.0 mm
02:10 AM 75.6°F24.2°C 63.9°F17.7°C 67% 2.7 mph SW4.3 kmh SW 6.0 mph9.7 kmh 29.98 in1015.2 mb - 0.00 in0.0 mm 0.00 in0.0 mm
02:20 AM 75.4°F24.1°C 63.7°F17.6°C 67% 2.2 mph S3.5 kmh S 4.0 mph6.4 kmh 29.98 in1015.2 mb - 0.00 in0.0 mm 0.00 in0.0 mm
02:30 AM 75.1°F23.9°C 64.2°F17.9°C 69% 3.7 mph S6.0 kmh S 4.0 mph6.4 kmh 29.98 in1015.2 mb - 0.00 in0.0 mm 0.00 in0.0 mm
02:40 AM 75.0°F23.9°C 64.5°F18.1°C 70% 1.6 mph SW2.6 kmh SW 2.0 mph3.2 kmh 29.98 in1015.2 mb - 0.00 in0.0 mm 0.00 in0.0 mm
02:50 AM 74.9°F23.8°C 64.9°F18.3°C 71% 0.6 mph SSW1.0 kmh SSW 2.0 mph3.2 kmh 29.98 in1015.2 mb - 0.00 in0.0 mm 0.00 in0.0 mm
03:00 AM 74.8°F23.8°C 65.2°F18.4°C 72% 1.8 mph S2.9 kmh S 3.0 mph4.8 kmh 29.98 in1015.2 mb - 0.00 in0.0 mm 0.00 in0.0 mm
03:10 AM 74.6°F23.7°C 65.4°F18.6°C 73% 2.5 mph SSW4.0 kmh SSW 4.0 mph6.4 kmh 29.98 in1015.2 mb - 0.00 in0.0 mm 0.00 in0.0 mm
03:20 AM 74.5°F23.6°C 65.7°F18.7°C 74% 2.5 mph S4.0 kmh S 6.0 mph9.7 kmh 29.98 in1015.2 mb - 0.00 in0.0 mm 0.00 in0.0 mm
03:30 AM 74.5°F23.6°C 66.1°F18.9°C 75% 3.7 mph S6.0 kmh S 6.0 mph9.7 kmh 29.98 in1015.2 mb - 0.00 in0.0 mm 0.00 in0.0 mm
03:40 AM 74.4°F23.6°C 66.3°F19.1°C 76% 3.0 mph SSW4.8 kmh SSW 9.0 mph14.5 kmh 29.98 in1015.2 mb - 0.00 in0.0 mm 0.00 in0.0 mm
03:50 AM 74.4°F23.6°C 66.3°F19.1°C 76% 4.2 mph WSW6.8 kmh WSW 6.0 mph9.7 kmh 29.98 in1015.2 mb - 0.00 in0.0 mm 0.00 in0.0 mm
04:00 AM 74.3°F23.5°C 66.2°F19.0°C 76% 4.0 mph S6.4 kmh S 6.0 mph9.7 kmh 29.98 in1015.2 mb - 0.00 in0.0 mm 0.00 in0.0 mm
04:10 AM 74.2°F23.4°C 66.1°F18.9°C 76% 0.7 mph S1.1 kmh S 2.0 mph3.2 kmh 29.98 in1015.2 mb - 0.00 in0.0 mm 0.00 in0.0 mm
04:20 AM 74.0°F23.3°C 66.0°F18.9°C 76% Calm Calm -- 29.98 in1015.2 mb - 0.00 in0.0 mm 0.00 in0.0 mm
04:30 AM 73.7°F23.2°C 66.0°F18.9°C 77% 0.1 mph SSW0.2 kmh SSW 2.0 mph3.2 kmh 29.98 in1015.2 mb - 0.00 in0.0 mm 0.00 in0.0 mm
04:40 AM 73.7°F23.2°C 66.0°F18.9°C 77% 0.6 mph WSW1.0 kmh WSW 2.0 mph3.2 kmh 29.98 in1015.2 mb - 0.00 in0.0 mm 0.00 in0.0 mm
04:50 AM 73.6°F23.1°C 66.3°F19.1°C 78% Calm Calm -- 29.98 in1015.2 mb - 0.00 in0.0 mm 0.00 in0.0 mm
05:00 AM 73.4°F23.0°C 66.1°F18.9°C 78% Calm Calm -- 29.98 in1015.2 mb - 0.00 in0.0 mm 0.00 in0.0 mm
05:10 AM 73.3°F22.9°C 66.8°F19.3°C 80% 3.2 mph SW5.1 kmh SW 6.0 mph9.7 kmh 29.99 in1015.6 mb - 0.00 in0.0 mm 0.00 in0.0 mm
05:20 AM 72.9°F22.7°C 66.7°F19.3°C 81% 2.0 mph SSW3.2 kmh SSW 4.0 mph6.4 kmh 29.98 in1015.2 mb - 0.00 in0.0 mm 0.00 in0.0 mm
05:30 AM 72.7°F22.6°C 66.9°F19.4°C 82% 1.0 mph SE1.6 kmh SE 2.0 mph3.2 kmh 29.99 in1015.6 mb - 0.00 in0.0 mm 0.00 in0.0 mm
05:40 AM 72.6°F22.6°C 66.8°F19.3°C 82% 0.7 mph SW1.1 kmh SW 1.0 mph1.6 kmh 29.99 in1015.6 mb - 0.00 in0.0 mm 0.00 in0.0 mm
05:50 AM 72.5°F22.5°C 67.0°F19.4°C 83% 0.9 mph SE1.4 kmh SE 2.0 mph3.2 kmh 29.99 in1015.6 mb - 0.00 in0.0 mm 0.00 in0.0 mm
06:00 AM 72.4°F22.4°C 66.9°F19.4°C 83% 0.7 mph SW1.1 kmh SW 3.0 mph4.8 kmh 29.99 in1015.6 mb - 0.00 in0.0 mm 0.00 in0.0 mm
06:10 AM 72.3°F22.4°C 66.9°F19.4°C 83% Calm Calm -- 30.00 in1015.9 mb - 0.00 in0.0 mm 0.00 in0.0 mm
06:20 AM 72.3°F22.4°C 66.9°F19.4°C 83% Calm Calm -- 30.00 in1015.9 mb - 0.00 in0.0 mm 0.00 in0.0 mm
06:30 AM 72.3°F22.4°C 67.2°F19.6°C 84% 0.7 mph WSW1.1 kmh WSW 2.0 mph3.2 kmh 30.00 in1015.9 mb - 0.00 in0.0 mm 0.00 in0.0 mm
06:40 AM 72.4°F22.4°C 67.3°F19.6°C 84% 0.8 mph S1.3 kmh S 3.0 mph4.8 kmh 30.00 in1015.9 mb - 0.00 in0.0 mm 0.00 in0.0 mm
06:50 AM 72.5°F22.5°C 67.4°F19.7°C 84% 2.0 mph W3.2 kmh W 3.0 mph4.8 kmh 30.01 in1016.3 mb - 0.00 in0.0 mm 0.00 in0.0 mm
07:00 AM 72.6°F22.6°C 67.5°F19.7°C 84% 2.3 mph SSW3.7 kmh SSW 5.0 mph8.0 kmh 30.01 in1016.3 mb - 0.00 in0.0 mm 0.00 in0.0 mm
07:10 AM 72.8°F22.7°C 67.4°F19.7°C 83% 2.3 mph W3.7 kmh W 4.0 mph6.4 kmh 30.02 in1016.6 mb - 0.00 in0.0 mm 0.00 in0.0 mm
07:20 AM 73.0°F22.8°C 67.5°F19.7°C 83% 2.3 mph SW3.7 kmh SW 3.0 mph4.8 kmh 30.01 in1016.3 mb - 0.00 in0.0 mm 0.00 in0.0 mm
07:30 AM 73.1°F22.8°C 67.9°F19.9°C 84% 0.5 mph WSW0.8 kmh WSW 3.0 mph4.8 kmh 30.01 in1016.3 mb - 0.00 in0.0 mm 0.00 in0.0 mm
07:40 AM 73.2°F22.9°C 68.1°F20.1°C 84% 0.3 mph SW0.5 kmh SW 1.0 mph1.6 kmh 30.01 in1016.3 mb - 0.00 in0.0 mm 0.00 in0.0 mm
07:50 AM 73.4°F23.0°C 68.3°F20.2°C 84% 1.9 mph SW3.1 kmh SW 4.0 mph6.4 kmh 30.02 in1016.6 mb - 0.00 in0.0 mm 0.00 in0.0 mm
08:00 AM 73.5°F23.1°C 68.0°F20.0°C 83% 1.1 mph WSW1.8 kmh WSW 3.0 mph4.8 kmh 30.02 in1016.6 mb - 0.00 in0.0 mm 0.00 in0.0 mm
08:10 AM 73.6°F23.1°C 68.1°F20.1°C 83% 1.0 mph SW1.6 kmh SW 2.0 mph3.2 kmh 30.02 in1016.6 mb - 0.00 in0.0 mm 0.00 in0.0 mm
08:20 AM 73.6°F23.1°C 68.5°F20.3°C 84% 2.2 mph SSE3.5 kmh SSE 4.0 mph6.4 kmh 30.03 in1016.9 mb - 0.00 in0.0 mm 0.00 in0.0 mm
08:30 AM 73.6°F23.1°C 68.5°F20.3°C 84% 0.9 mph SW1.4 kmh SW 1.0 mph1.6 kmh 30.03 in1016.9 mb - 0.00 in0.0 mm 0.00 in0.0 mm
08:40 AM 73.8°F23.2°C 68.7°F20.4°C 84% 1.0 mph SW1.6 kmh SW 2.0 mph3.2 kmh 30.03 in1016.9 mb - 0.00 in0.0 mm 0.00 in0.0 mm
08:50 AM 73.9°F23.3°C 69.1°F20.6°C 85% 0.1 mph S0.2 kmh S 1.0 mph1.6 kmh 30.03 in1016.9 mb - 0.00 in0.0 mm 0.00 in0.0 mm
09:00 AM 74.2°F23.4°C 68.3°F20.2°C 82% 0.8 mph SSE1.3 kmh SSE 1.0 mph1.6 kmh 30.03 in1016.9 mb - 0.00 in0.0 mm 0.00 in0.0 mm
09:10 AM 74.5°F23.6°C 68.7°F20.4°C 82% 0.1 mph W0.2 kmh W -- 30.03 in1016.9 mb - 0.00 in0.0 mm 0.00 in0.0 mm
09:20 AM 75.7°F24.3°C 68.4°F20.2°C 78% 2.3 mph SE3.7 kmh SE 4.0 mph6.4 kmh 30.04 in1017.3 mb - 0.00 in0.0 mm 0.00 in0.0 mm
09:30 AM 76.5°F24.7°C 68.8°F20.4°C 77% 0.6 mph SE1.0 kmh SE 2.0 mph3.2 kmh 30.04 in1017.3 mb - 0.00 in0.0 mm 0.00 in0.0 mm
09:40 AM 77.2°F25.1°C 69.0°F20.6°C 76% 2.6 mph WSW4.2 kmh WSW 5.0 mph8.0 kmh 30.04 in1017.3 mb - 0.00 in0.0 mm 0.00 in0.0 mm
09:50 AM 76.6°F24.8°C 68.4°F20.2°C 76% 1.6 mph WSW2.6 kmh WSW 4.0 mph6.4 kmh 30.04 in1017.3 mb - 0.00 in0.0 mm 0.00 in0.0 mm
10:00 AM 76.3°F24.6°C 68.6°F20.3°C 77% 1.0 mph WSW1.6 kmh WSW 4.0 mph6.4 kmh 30.04 in1017.3 mb - 0.00 in0.0 mm 0.00 in0.0 mm
10:10 AM 77.1°F25.1°C 67.8°F19.9°C 73% 3.4 mph SSW5.5 kmh SSW 6.0 mph9.7 kmh 30.04 in1017.3 mb - 0.00 in0.0 mm 0.00 in0.0 mm
10:20 AM 77.9°F25.5°C 68.5°F20.3°C 73% 2.0 mph SSE3.2 kmh SSE 3.0 mph4.8 kmh 30.04 in1017.3 mb - 0.00 in0.0 mm 0.00 in0.0 mm
10:30 AM 79.0°F26.1°C 68.8°F20.4°C 71% 2.3 mph SSE3.7 kmh SSE 7.0 mph11.3 kmh 30.04 in1017.3 mb - 0.00 in0.0 mm 0.00 in0.0 mm
10:40 AM 79.2°F26.2°C 69.0°F20.6°C 71% 2.2 mph SW3.5 kmh SW 5.0 mph8.0 kmh 30.04 in1017.3 mb - 0.00 in0.0 mm 0.00 in0.0 mm
10:50 AM 78.6°F25.9°C 68.8°F20.4°C 72% 0.5 mph S0.8 kmh S 1.0 mph1.6 kmh 30.04 in1017.3 mb - 0.00 in0.0 mm 0.00 in0.0 mm
11:00 AM 78.6°F25.9°C 68.9°F20.5°C 72% 2.9 mph WNW4.7 kmh WNW 4.0 mph6.4 kmh 30.04 in1017.3 mb - 0.00 in0.0 mm 0.00 in0.0 mm
11:10 AM 78.0°F25.6°C 69.0°F20.6°C 74% 2.5 mph S4.0 kmh S 5.0 mph8.0 kmh 30.04 in1017.3 mb - 0.00 in0.0 mm 0.00 in0.0 mm
11:20 AM 79.1°F26.2°C 68.9°F20.5°C 71% 2.7 mph SW4.3 kmh SW 7.0 mph11.3 kmh 30.04 in1017.3 mb - 0.00 in0.0 mm 0.00 in0.0 mm
11:30 AM 79.6°F26.4°C 69.4°F20.8°C 71% 2.4 mph WSW3.9 kmh WSW 3.0 mph4.8 kmh 30.04 in1017.3 mb - 0.00 in0.0 mm 0.00 in0.0 mm
11:40 AM 80.2°F26.8°C 69.1°F20.6°C 69% 3.2 mph SW5.1 kmh SW 7.0 mph11.3 kmh 30.04 in1017.3 mb - 0.00 in0.0 mm 0.00 in0.0 mm
11:50 AM 81.2°F27.3°C 69.2°F20.7°C 67% 1.9 mph SE3.1 kmh SE 5.0 mph8.0 kmh 30.04 in1017.3 mb - 0.00 in0.0 mm 0.00 in0.0 mm
12:00 PM 81.8°F27.7°C 69.8°F21.0°C 67% 3.0 mph SW4.8 kmh SW 6.0 mph9.7 kmh 30.03 in1016.9 mb - 0.00 in0.0 mm 0.00 in0.0 mm
12:10 PM 82.3°F27.9°C 69.3°F20.7°C 65% 1.6 mph S2.6 kmh S 7.0 mph11.3 kmh 30.03 in1016.9 mb - 0.00 in0.0 mm 0.00 in0.0 mm
12:20 PM 81.5°F27.5°C 68.6°F20.3°C 65% 4.4 mph SW7.1 kmh SW 7.0 mph11.3 kmh 30.03 in1016.9 mb - 0.00 in0.0 mm 0.00 in0.0 mm
12:30 PM 82.2°F27.9°C 69.7°F20.9°C 66% 1.5 mph SSW2.4 kmh SSW 3.0 mph4.8 kmh 30.03 in1016.9 mb - 0.00 in0.0 mm 0.00 in0.0 mm
12:40 PM 82.2°F27.9°C 68.9°F20.5°C 64% 0.3 mph SE0.5 kmh SE 1.0 mph1.6 kmh 30.03 in1016.9 mb - 0.00 in0.0 mm 0.00 in0.0 mm
12:50 PM 83.9°F28.8°C 69.5°F20.8°C 62% 1.2 mph SW1.9 kmh SW 4.0 mph6.4 kmh 30.02 in1016.6 mb - 0.00 in0.0 mm 0.00 in0.0 mm
01:00 PM 82.9°F28.3°C 70.0°F21.1°C 65% 3.4 mph SSW5.5 kmh SSW 5.0 mph8.0 kmh 30.02 in1016.6 mb - 0.00 in0.0 mm 0.00 in0.0 mm
01:10 PM 82.6°F28.1°C 69.6°F20.9°C 65% 1.9 mph SW3.1 kmh SW 2.0 mph3.2 kmh 30.02 in1016.6 mb - 0.00 in0.0 mm 0.00 in0.0 mm
01:20 PM 82.7°F28.2°C 69.3°F20.7°C 64% 2.9 mph SW4.7 kmh SW 4.0 mph6.4 kmh 30.02 in1016.6 mb - 0.00 in0.0 mm 0.00 in0.0 mm
01:30 PM 83.0°F28.3°C 69.6°F20.9°C 64% 3.5 mph SW5.6 kmh SW 6.0 mph9.7 kmh 30.02 in1016.6 mb - 0.00 in0.0 mm 0.00 in0.0 mm
01:40 PM 82.8°F28.2°C 69.4°F20.8°C 64% 1.1 mph WSW1.8 kmh WSW 3.0 mph4.8 kmh 30.01 in1016.3 mb - 0.00 in0.0 mm 0.00 in0.0 mm
01:50 PM 83.4°F28.6°C 70.0°F21.1°C 64% 2.3 mph SW3.7 kmh SW 4.0 mph6.4 kmh 30.01 in1016.3 mb - 0.00 in0.0 mm 0.00 in0.0 mm
02:00 PM 82.8°F28.2°C 69.8°F21.0°C 65% 2.4 mph WNW3.9 kmh WNW 3.0 mph4.8 kmh 30.01 in1016.3 mb - 0.00 in0.0 mm 0.00 in0.0 mm
02:10 PM 83.3°F28.5°C 69.8°F21.0°C 64% 5.5 mph WSW8.9 kmh WSW 6.0 mph9.7 kmh 30.00 in1015.9 mb - 0.00 in0.0 mm 0.00 in0.0 mm
02:20 PM 83.9°F28.8°C 70.4°F21.3°C 64% 4.1 mph S6.6 kmh S 6.0 mph9.7 kmh 30.00 in1015.9 mb - 0.00 in0.0 mm 0.00 in0.0 mm
02:30 PM 84.0°F28.9°C 70.0°F21.1°C 63% 1.5 mph NW2.4 kmh NW 3.0 mph4.8 kmh 30.00 in1015.9 mb - 0.00 in0.0 mm 0.00 in0.0 mm
02:40 PM 84.1°F28.9°C 70.2°F21.2°C 63% 1.4 mph NNE2.3 kmh NNE 4.0 mph6.4 kmh 30.00 in1015.9 mb - 0.00 in0.0 mm 0.00 in0.0 mm
02:50 PM 84.4°F29.1°C 71.3°F21.8°C 65% 1.8 mph WSW2.9 kmh WSW 6.0 mph9.7 kmh 30.00 in1015.9 mb - 0.00 in0.0 mm 0.00 in0.0 mm
03:00 PM 85.2°F29.6°C 70.7°F21.5°C 62% 2.7 mph SW4.3 kmh SW 6.0 mph9.7 kmh 29.99 in1015.6 mb - 0.00 in0.0 mm 0.00 in0.0 mm
03:10 PM 85.0°F29.4°C 71.0°F21.7°C 63% 2.0 mph S3.2 kmh S 5.0 mph8.0 kmh 29.99 in1015.6 mb - 0.00 in0.0 mm 0.00 in0.0 mm
03:20 PM 84.3°F29.1°C 71.2°F21.8°C 65% 1.5 mph SW2.4 kmh SW 7.0 mph11.3 kmh 29.99 in1015.6 mb - 0.00 in0.0 mm 0.00 in0.0 mm
03:30 PM 84.0°F28.9°C 71.0°F21.7°C 65% 3.4 mph SE5.5 kmh SE 4.0 mph6.4 kmh 29.99 in1015.6 mb - 0.00 in0.0 mm 0.00 in0.0 mm
03:40 PM 83.6°F28.7°C 70.2°F21.2°C 64% 2.6 mph SSE4.2 kmh SSE 5.0 mph8.0 kmh 30.00 in1015.9 mb - 0.00 in0.0 mm 0.00 in0.0 mm
03:50 PM 83.1°F28.4°C 70.6°F21.4°C 66% 1.2 mph SW1.9 kmh SW 2.0 mph3.2 kmh 29.99 in1015.6 mb - 0.00 in0.0 mm 0.00 in0.0 mm
04:00 PM 84.4°F29.1°C 71.3°F21.8°C 65% 3.7 mph SW6.0 kmh SW 5.0 mph8.0 kmh 29.99 in1015.6 mb - 0.00 in0.0 mm 0.00 in0.0 mm
04:10 PM 84.5°F29.2°C 71.0°F21.7°C 64% 1.8 mph WNW2.9 kmh WNW 3.0 mph4.8 kmh 29.99 in1015.6 mb - 0.00 in0.0 mm 0.00 in0.0 mm
04:20 PM 84.0°F28.9°C 70.5°F21.4°C 64% 4.2 mph ESE6.8 kmh ESE 9.0 mph14.5 kmh 29.98 in1015.2 mb - 0.00 in0.0 mm 0.00 in0.0 mm
04:30 PM 84.0°F28.9°C 70.5°F21.4°C 64% 2.3 mph ESE3.7 kmh ESE 3.0 mph4.8 kmh 29.99 in1015.6 mb - 0.00 in0.0 mm 0.00 in0.0 mm
04:40 PM 83.6°F28.7°C 69.7°F20.9°C 63% 4.0 mph W6.4 kmh W 10.0 mph16.1 kmh 29.99 in1015.6 mb - 0.00 in0.0 mm 0.00 in0.0 mm
04:50 PM 83.6°F28.7°C 69.7°F20.9°C 63% 2.8 mph SW4.5 kmh SW 5.0 mph8.0 kmh 29.99 in1015.6 mb - 0.00 in0.0 mm 0.00 in0.0 mm
05:00 PM 83.6°F28.7°C 70.1°F21.2°C 64% 2.4 mph SSW3.9 kmh SSW 6.0 mph9.7 kmh 29.98 in1015.2 mb - 0.00 in0.0 mm 0.00 in0.0 mm
05:10 PM 82.7°F28.2°C 70.2°F21.2°C 66% 1.5 mph WSW2.4 kmh WSW 3.0 mph4.8 kmh 29.99 in1015.6 mb - 0.00 in0.0 mm 0.00 in0.0 mm
05:20 PM 83.6°F28.7°C 71.0°F21.7°C 66% 2.5 mph W4.0 kmh W 5.0 mph8.0 kmh 29.98 in1015.2 mb - 0.00 in0.0 mm 0.00 in0.0 mm
05:30 PM 82.9°F28.3°C 69.9°F21.1°C 65% 4.8 mph S7.7 kmh S 11.0 mph17.7 kmh 29.98 in1015.2 mb - 0.00 in0.0 mm 0.00 in0.0 mm
05:40 PM 82.1°F27.8°C 70.1°F21.2°C 67% 1.6 mph SW2.6 kmh SW 4.0 mph6.4 kmh 29.98 in1015.2 mb - 0.00 in0.0 mm 0.00 in0.0 mm
05:50 PM 81.5°F27.5°C 69.9°F21.1°C 68% 2.9 mph SW4.7 kmh SW 5.0 mph8.0 kmh 29.98 in1015.2 mb - 0.00 in0.0 mm 0.00 in0.0 mm
06:00 PM 80.9°F27.2°C 70.2°F21.2°C 70% 0.7 mph S1.1 kmh S 5.0 mph8.0 kmh 29.98 in1015.2 mb - 0.00 in0.0 mm 0.00 in0.0 mm
06:10 PM 80.5°F26.9°C 69.8°F21.0°C 70% 3.2 mph SSW5.1 kmh SSW 4.0 mph6.4 kmh 29.98 in1015.2 mb - 0.00 in0.0 mm 0.00 in0.0 mm
06:20 PM 79.6°F26.4°C 69.4°F20.8°C 71% 3.2 mph SSW5.1 kmh SSW 6.0 mph9.7 kmh 29.98 in1015.2 mb - 0.00 in0.0 mm 0.00 in0.0 mm
06:30 PM 79.2°F26.2°C 69.7°F20.9°C 73% 1.0 mph SE1.6 kmh SE 6.0 mph9.7 kmh 29.98 in1015.2 mb - 0.00 in0.0 mm 0.00 in0.0 mm
06:40 PM 78.6°F25.9°C 69.6°F20.9°C 74% 1.0 mph E1.6 kmh E 1.0 mph1.6 kmh 29.99 in1015.6 mb - 0.00 in0.0 mm 0.00 in0.0 mm
06:50 PM 78.3°F25.7°C 69.3°F20.7°C 74% 0.6 mph WSW1.0 kmh WSW 1.0 mph1.6 kmh 29.98 in1015.2 mb - 0.00 in0.0 mm 0.00 in0.0 mm
07:00 PM 78.2°F25.7°C 69.6°F20.9°C 75% 1.1 mph SW1.8 kmh SW 4.0 mph6.4 kmh 29.98 in1015.2 mb - 0.00 in0.0 mm 0.00 in0.0 mm
07:10 PM 77.9°F25.5°C 69.3°F20.7°C 75% 1.0 mph WNW1.6 kmh WNW 1.0 mph1.6 kmh 29.99 in1015.6 mb - 0.00 in0.0 mm 0.00 in0.0 mm
07:20 PM 77.8°F25.4°C 68.8°F20.4°C 74% 1.5 mph SW2.4 kmh SW 5.0 mph8.0 kmh 29.98 in1015.2 mb - 0.00 in0.0 mm 0.00 in0.0 mm
07:30 PM 77.7°F25.4°C 68.7°F20.4°C 74% 2.2 mph S3.5 kmh S 5.0 mph8.0 kmh 29.99 in1015.6 mb - 0.00 in0.0 mm 0.00 in0.0 mm
07:40 PM 77.5°F25.3°C 68.9°F20.5°C 75% 0.8 mph SW1.3 kmh SW 2.0 mph3.2 kmh 30.00 in1015.9 mb - 0.00 in0.0 mm 0.00 in0.0 mm
07:50 PM 77.4°F25.2°C 68.9°F20.5°C 75% Calm Calm 1.0 mph1.6 kmh 30.00 in1015.9 mb - 0.00 in0.0 mm 0.00 in0.0 mm
08:00 PM 77.3°F25.2°C 69.2°F20.7°C 76% 1.9 mph WSW3.1 kmh WSW 3.0 mph4.8 kmh 30.00 in1015.9 mb - 0.00 in0.0 mm 0.00 in0.0 mm
08:10 PM 77.2°F25.1°C 69.0°F20.6°C 76% 0.2 mph SSE0.3 kmh SSE 2.0 mph3.2 kmh 30.01 in1016.3 mb - 0.00 in0.0 mm 0.00 in0.0 mm
08:20 PM 77.0°F25.0°C 69.6°F20.9°C 78% 1.0 mph S1.6 kmh S 3.0 mph4.8 kmh 30.00 in1015.9 mb - 0.00 in0.0 mm 0.00 in0.0 mm
08:30 PM 76.8°F24.9°C 69.8°F21.0°C 79% 0.5 mph SSE0.8 kmh SSE 2.0 mph3.2 kmh 30.00 in1015.9 mb - 0.00 in0.0 mm 0.00 in0.0 mm
08:40 PM 76.7°F24.8°C 69.7°F20.9°C 79% 3.0 mph SSW4.8 kmh SSW 5.0 mph8.0 kmh 30.00 in1015.9 mb - 0.00 in0.0 mm 0.00 in0.0 mm
08:50 PM 76.6°F24.8°C 69.6°F20.9°C 79% 2.7 mph SSW4.3 kmh SSW 3.0 mph4.8 kmh 30.00 in1015.9 mb - 0.00 in0.0 mm 0.00 in0.0 mm
09:00 PM 76.5°F24.7°C 69.5°F20.8°C 79% 2.3 mph SSE3.7 kmh SSE 3.0 mph4.8 kmh 30.00 in1015.9 mb - 0.00 in0.0 mm 0.00 in0.0 mm
09:10 PM 76.5°F24.7°C 69.1°F20.6°C 78% 1.4 mph S2.3 kmh S 3.0 mph4.8 kmh 30.01 in1016.3 mb - 0.00 in0.0 mm 0.00 in0.0 mm
09:20 PM 76.4°F24.7°C 68.7°F20.4°C 77% 2.8 mph S4.5 kmh S 4.0 mph6.4 kmh 30.01 in1016.3 mb - 0.00 in0.0 mm 0.00 in0.0 mm
09:30 PM 76.4°F24.7°C 68.7°F20.4°C 77% 0.3 mph SE0.5 kmh SE 2.0 mph3.2 kmh 30.01 in1016.3 mb - 0.00 in0.0 mm 0.00 in0.0 mm
09:40 PM 76.3°F24.6°C 68.2°F20.1°C 76% Calm Calm -- 30.02 in1016.6 mb - 0.00 in0.0 mm 0.00 in0.0 mm
09:50 PM 76.1°F24.5°C 68.3°F20.2°C 77% Calm Calm -- 30.02 in1016.6 mb - 0.00 in0.0 mm 0.00 in0.0 mm
10:00 PM 75.6°F24.2°C 68.3°F20.2°C 78% Calm Calm 1.0 mph1.6 kmh 30.02 in1016.6 mb - 0.00 in0.0 mm 0.00 in0.0 mm
10:10 PM 75.4°F24.1°C 68.1°F20.1°C 78% Calm Calm -- 30.02 in1016.6 mb - 0.00 in0.0 mm 0.00 in0.0 mm
10:20 PM 75.1°F23.9°C 67.8°F19.9°C 78% Calm Calm -- 30.02 in1016.6 mb - 0.00 in0.0 mm 0.00 in0.0 mm
10:30 PM 74.8°F23.8°C 67.9°F19.9°C 79% Calm Calm -- 30.02 in1016.6 mb - 0.00 in0.0 mm 0.00 in0.0 mm
10:40 PM 74.7°F23.7°C 67.7°F19.8°C 79% Calm Calm -- 30.02 in1016.6 mb - 0.00 in0.0 mm 0.00 in0.0 mm
10:50 PM 74.4°F23.6°C 67.8°F19.9°C 80% Calm Calm -- 30.02 in1016.6 mb - 0.00 in0.0 mm 0.00 in0.0 mm
11:00 PM 74.2°F23.4°C 67.6°F19.8°C 80% Calm Calm -- 30.02 in1016.6 mb - 0.00 in0.0 mm 0.00 in0.0 mm
11:10 PM 74.0°F23.3°C 67.8°F19.9°C 81% Calm Calm -- 30.02 in1016.6 mb - 0.00 in0.0 mm 0.00 in0.0 mm
11:20 PM 73.9°F23.3°C 68.1°F20.1°C 82% 0.3 mph S0.5 kmh S 2.0 mph3.2 kmh 30.02 in1016.6 mb - 0.00 in0.0 mm 0.00 in0.0 mm
11:30 PM 74.3°F23.5°C 68.5°F20.3°C 82% 0.7 mph SW1.1 kmh SW 2.0 mph3.2 kmh 30.02 in1016.6 mb - 0.00 in0.0 mm 0.00 in0.0 mm
11:40 PM 74.6°F23.7°C 69.1°F20.6°C 83% 1.4 mph SSE2.3 kmh SSE 2.0 mph3.2 kmh 30.02 in1016.6 mb - 0.00 in0.0 mm 0.00 in0.0 mm
11:50 PM 74.8°F23.8°C 69.3°F20.7°C 83% 1.5 mph WSW2.4 kmh WSW 2.0 mph3.2 kmh 30.02 in1016.6 mb - 0.00 in0.0 mm 0.00 in0.0 mm